sensor_id;sensor_type;location;lat;lon;timestamp;pressure;altitude;pressure_sealevel;temperature;humidity
10806;BME280;5455;53.224;6.000;2023-05-14T00:00:48;102152.63;;;10.84;100.00
10806;BME280;5455;53.224;6.000;2023-05-14T00:03:15;102143.84;;;10.82;100.00
10806;BME280;5455;53.224;6.000;2023-05-14T00:05:43;102143.84;;;10.82;100.00
10806;BME280;5455;53.224;6.000;2023-05-14T00:08:10;102143.84;;;10.82;100.00
10806;BME280;5455;53.224;6.000;2023-05-14T00:10:36;102135.56;;;10.82;100.00
10806;BME280;5455;53.224;6.000;2023-05-14T00:13:04;102138.50;;;10.85;100.00
10806;BME280;5455;53.224;6.000;2023-05-14T00:15:31;102126.97;;;10.83;100.00
10806;BME280;5455;53.224;6.000;2023-05-14T00:18:00;102121.78;;;10.82;100.00
10806;BME280;5455;53.224;6.000;2023-05-14T00:20:27;102118.22;;;10.81;100.00
10806;BME280;5455;53.224;6.000;2023-05-14T00:22:54;102121.66;;;10.78;100.00
10806;BME280;5455;53.224;6.000;2023-05-14T00:25:21;102113.69;;;10.77;100.00
10806;BME280;5455;53.224;6.000;2023-05-14T00:27:48;102108.16;;;10.77;100.00
10806;BME280;5455;53.224;6.000;2023-05-14T00:30:15;102109.28;;;10.76;100.00
10806;BME280;5455;53.224;6.000;2023-05-14T00:32:41;102105.75;;;10.75;100.00
10806;BME280;5455;53.224;6.000;2023-05-14T00:35:09;102111.28;;;10.75;100.00
10806;BME280;5455;53.224;6.000;2023-05-14T00:37:35;102102.66;;;10.77;100.00
10806;BME280;5455;53.224;6.000;2023-05-14T00:40:03;102100.56;;;10.74;100.00
10806;BME280;5455;53.224;6.000;2023-05-14T00:42:33;102103.97;;;10.71;100.00
10806;BME280;5455;53.224;6.000;2023-05-14T00:45:00;102096.03;;;10.69;100.00
10806;BME280;5455;53.224;6.000;2023-05-14T00:47:27;102093.28;;;10.69;100.00
10806;BME280;5455;53.224;6.000;2023-05-14T00:49:55;102086.94;;;10.69;100.00
10806;BME280;5455;53.224;6.000;2023-05-14T00:52:22;102094.06;;;10.70;100.00
10806;BME280;5455;53.224;6.000;2023-05-14T00:54:49;102091.31;;;10.70;100.00
10806;BME280;5455;53.224;6.000;2023-05-14T00:57:17;102096.81;;;10.70;100.00
10806;BME280;5455;53.224;6.000;2023-05-14T00:59:44;102088.88;;;10.68;100.00
10806;BME280;5455;53.224;6.000;2023-05-14T01:02:11;102086.13;;;10.68;100.00
10806;BME280;5455;53.224;6.000;2023-05-14T01:04:38;102086.13;;;10.68;100.00
10806;BME280;5455;53.224;6.000;2023-05-14T01:12:23;102081.59;;;10.64;100.00
10806;BME280;5455;53.224;6.000;2023-05-14T01:17:40;102091.84;;;10.63;100.00
10806;BME280;5455;53.224;6.000;2023-05-14T01:20:09;102090.69;;;10.64;100.00
10806;BME280;5455;53.224;6.000;2023-05-14T01:22:36;102085.66;;;10.66;100.00
10806;BME280;5455;53.224;6.000;2023-05-14T01:25:04;102086.94;;;10.69;100.00
10806;BME280;5455;53.224;6.000;2023-05-14T01:32:56;102070.34;;;10.77;100.00
10806;BME280;5455;53.224;6.000;2023-05-14T01:35:28;102075.53;;;10.79;100.00
10806;BME280;5455;53.224;6.000;2023-05-14T01:37:57;102073.59;;;10.79;100.00
10806;BME280;5455;53.224;6.000;2023-05-14T01:40:25;102075.22;;;10.80;100.00
10806;BME280;5455;53.224;6.000;2023-05-14T01:42:53;102070.66;;;10.84;100.00
10806;BME280;5455;53.224;6.000;2023-05-14T01:45:21;102068.38;;;10.86;100.00
10806;BME280;5455;53.224;6.000;2023-05-14T01:47:50;102068.69;;;10.93;100.00
10806;BME280;5455;53.224;6.000;2023-05-14T01:50:17;102065.56;;;10.95;100.00
10806;BME280;5455;53.224;6.000;2023-05-14T01:52:44;102062.00;;;10.94;100.00
10806;BME280;5455;53.224;6.000;2023-05-14T01:55:11;102054.22;;;10.88;100.00
10806;BME280;5455;53.224;6.000;2023-05-14T01:57:38;102045.50;;;10.86;100.00
10806;BME280;5455;53.224;6.000;2023-05-14T02:00:05;102045.50;;;10.86;100.00
10806;BME280;5455;53.224;6.000;2023-05-14T02:02:39;102035.72;;;10.88;100.00
10806;BME280;5455;53.224;6.000;2023-05-14T02:05:10;102046.78;;;10.88;100.00
10806;BME280;5455;53.224;6.000;2023-05-14T02:07:46;102045.97;;;10.88;100.00
10806;BME280;5455;53.224;6.000;2023-05-14T02:10:15;102037.38;;;10.89;100.00
10806;BME280;5455;53.224;6.000;2023-05-14T02:12:47;102032.97;;;10.88;100.00
10806;BME280;5455;53.224;6.000;2023-05-14T02:15:13;102028.13;;;10.85;100.00
10806;BME280;5455;53.224;6.000;2023-05-14T02:17:40;102034.59;;;10.89;100.00
10806;BME280;5455;53.224;6.000;2023-05-14T02:20:10;102033.31;;;10.87;100.00
10806;BME280;5455;53.224;6.000;2023-05-14T02:22:37;102030.06;;;10.85;100.00
10806;BME280;5455;53.224;6.000;2023-05-14T02:25:04;102040.63;;;10.83;100.00
10806;BME280;5455;53.224;6.000;2023-05-14T02:27:31;102025.72;;;10.84;100.00
10806;BME280;5455;53.224;6.000;2023-05-14T02:29:58;102022.94;;;10.84;100.00
10806;BME280;5455;53.224;6.000;2023-05-14T02:32:26;102019.03;;;10.85;100.00
10806;BME280;5455;53.224;6.000;2023-05-14T02:34:54;102017.69;;;10.91;100.00
10806;BME280;5455;53.224;6.000;2023-05-14T02:37:21;102016.25;;;10.85;100.00
10806;BME280;5455;53.224;6.000;2023-05-14T02:39:48;102010.59;;;10.90;100.00
10806;BME280;5455;53.224;6.000;2023-05-14T02:42:15;102011.72;;;10.89;100.00
10806;BME280;5455;53.224;6.000;2023-05-14T02:44:42;102013.19;;;10.86;100.00
10806;BME280;5455;53.224;6.000;2023-05-14T02:47:09;102009.81;;;10.81;100.00
10806;BME280;5455;53.224;6.000;2023-05-14T02:49:36;102008.66;;;10.82;100.00
10806;BME280;5455;53.224;6.000;2023-05-14T02:52:04;102016.94;;;10.82;100.00
10806;BME280;5455;53.224;6.000;2023-05-14T02:54:31;102008.19;;;10.80;100.00
10806;BME280;5455;53.224;6.000;2023-05-14T02:56:58;102001.53;;;10.81;100.00
10806;BME280;5455;53.224;6.000;2023-05-14T02:59:25;102010.63;;;10.81;100.00
10806;BME280;5455;53.224;6.000;2023-05-14T03:01:53;102005.91;;;10.82;100.00
10806;BME280;5455;53.224;6.000;2023-05-14T03:04:20;102007.53;;;10.83;100.00
10806;BME280;5455;53.224;6.000;2023-05-14T03:06:48;102000.38;;;10.82;100.00
10806;BME280;5455;53.224;6.000;2023-05-14T03:09:15;102012.22;;;10.82;100.00
10806;BME280;5455;53.224;6.000;2023-05-14T03:11:42;102008.53;;;10.78;100.00
10806;BME280;5455;53.224;6.000;2023-05-14T03:14:09;102005.78;;;10.78;100.00
10806;BME280;5455;53.224;6.000;2023-05-14T03:16:43;102009.97;;;10.76;100.00
10806;BME280;5455;53.224;6.000;2023-05-14T03:19:10;102002.38;;;10.73;100.00
10806;BME280;5455;53.224;6.000;2023-05-14T03:21:37;101999.28;;;10.74;100.00
10806;BME280;5455;53.224;6.000;2023-05-14T03:24:05;102001.69;;;10.76;100.00
10806;BME280;5455;53.224;6.000;2023-05-14T03:26:32;101996.53;;;10.74;100.00
10806;BME280;5455;53.224;6.000;2023-05-14T03:29:01;101995.06;;;10.77;100.00
10806;BME280;5455;53.224;6.000;2023-05-14T03:31:28;101995.53;;;10.79;100.00
10806;BME280;5455;53.224;6.000;2023-05-14T03:33:55;101990.81;;;10.79;100.00
10806;BME280;5455;53.224;6.000;2023-05-14T03:36:22;101993.56;;;10.79;100.00
10806;BME280;5455;53.224;6.000;2023-05-14T03:38:49;101995.66;;;10.82;100.00
10806;BME280;5455;53.224;6.000;2023-05-14T03:41:16;101996.16;;;10.84;100.00
10806;BME280;5455;53.224;6.000;2023-05-14T03:43:44;102000.69;;;10.89;100.00
10806;BME280;5455;53.224;6.000;2023-05-14T03:46:11;102004.72;;;10.91;100.00
10806;BME280;5455;53.224;6.000;2023-05-14T03:48:38;102001.28;;;10.94;100.00
10806;BME280;5455;53.224;6.000;2023-05-14T03:51:05;101989.25;;;10.99;100.00
10806;BME280;5455;53.224;6.000;2023-05-14T03:53:34;101981.59;;;11.04;100.00
10806;BME280;5455;53.224;6.000;2023-05-14T03:56:01;101977.16;;;11.12;100.00
10806;BME280;5455;53.224;6.000;2023-05-14T03:58:28;101975.13;;;11.21;100.00
10806;BME280;5455;53.224;6.000;2023-05-14T04:00:55;101976.91;;;11.26;100.00
10806;BME280;5455;53.224;6.000;2023-05-14T04:03:22;101963.69;;;11.31;100.00
10806;BME280;5455;53.224;6.000;2023-05-14T04:05:49;101978.13;;;11.37;100.00
10806;BME280;5455;53.224;6.000;2023-05-14T04:08:16;101994.97;;;11.44;100.00
10806;BME280;5455;53.224;6.000;2023-05-14T04:10:43;101987.13;;;11.46;100.00
10806;BME280;5455;53.224;6.000;2023-05-14T04:13:10;101995.88;;;11.48;100.00
10806;BME280;5455;53.224;6.000;2023-05-14T04:15:38;101988.56;;;11.52;100.00
10806;BME280;5455;53.224;6.000;2023-05-14T04:18:06;102001.56;;;11.51;100.00
10806;BME280;5455;53.224;6.000;2023-05-14T04:20:33;101981.91;;;11.53;100.00
10806;BME280;5455;53.224;6.000;2023-05-14T04:23:00;101996.03;;;11.51;100.00
10806;BME280;5455;53.224;6.000;2023-05-14T04:25:27;101985.78;;;11.52;100.00
10806;BME280;5455;53.224;6.000;2023-05-14T04:27:54;101988.09;;;11.50;100.00
10806;BME280;5455;53.224;6.000;2023-05-14T04:30:21;101988.41;;;11.48;100.00
10806;BME280;5455;53.224;6.000;2023-05-14T04:32:48;101993.47;;;11.46;100.00
10806;BME280;5455;53.224;6.000;2023-05-14T04:35:15;101981.81;;;11.41;100.00
10806;BME280;5455;53.224;6.000;2023-05-14T04:37:42;101990.13;;;11.41;100.00
10806;BME280;5455;53.224;6.000;2023-05-14T04:40:10;102004.78;;;11.33;100.00
10806;BME280;5455;53.224;6.000;2023-05-14T04:42:38;101983.03;;;11.31;100.00
10806;BME280;5455;53.224;6.000;2023-05-14T04:45:05;101986.13;;;11.30;100.00
10806;BME280;5455;53.224;6.000;2023-05-14T04:47:33;101996.50;;;11.33;100.00
10806;BME280;5455;53.224;6.000;2023-05-14T04:50:01;101995.34;;;11.34;100.00
10806;BME280;5455;53.224;6.000;2023-05-14T04:52:28;101987.53;;;11.36;100.00
10806;BME280;5455;53.224;6.000;2023-05-14T04:54:55;101990.78;;;11.38;100.00
10806;BME280;5455;53.224;6.000;2023-05-14T04:57:22;101985.41;;;11.41;100.00
10806;BME280;5455;53.224;6.000;2023-05-14T04:59:49;101982.75;;;11.45;100.00
10806;BME280;5455;53.224;6.000;2023-05-14T05:02:16;101983.69;;;11.49;100.00
10806;BME280;5455;53.224;6.000;2023-05-14T05:04:44;101986.75;;;11.56;100.00
10806;BME280;5455;53.224;6.000;2023-05-14T05:07:11;101993.19;;;11.60;100.00
10806;BME280;5455;53.224;6.000;2023-05-14T05:09:39;101996.53;;;11.66;100.00
10806;BME280;5455;53.224;6.000;2023-05-14T05:12:06;101995.03;;;11.77;100.00
10806;BME280;5455;53.224;6.000;2023-05-14T05:14:33;101992.78;;;11.91;100.00
10806;BME280;5455;53.224;6.000;2023-05-14T05:17:01;101998.00;;;11.92;100.00
10806;BME280;5455;53.224;6.000;2023-05-14T05:19:28;101999.03;;;12.00;100.00
10806;BME280;5455;53.224;6.000;2023-05-14T05:22:09;102004.28;;;12.13;100.00
10806;BME280;5455;53.224;6.000;2023-05-14T05:24:37;102002.69;;;12.25;100.00
10806;BME280;5455;53.224;6.000;2023-05-14T05:27:04;102002.00;;;12.28;100.00
10806;BME280;5455;53.224;6.000;2023-05-14T05:29:32;101997.63;;;12.39;100.00
10806;BME280;5455;53.224;6.000;2023-05-14T05:31:59;101999.16;;;12.48;100.00
10806;BME280;5455;53.224;6.000;2023-05-14T05:34:26;102001.13;;;12.48;100.00
10806;BME280;5455;53.224;6.000;2023-05-14T05:36:53;102000.16;;;12.44;100.00
10806;BME280;5455;53.224;6.000;2023-05-14T05:39:20;101997.41;;;12.44;100.00
10806;BME280;5455;53.224;6.000;2023-05-14T05:41:47;101990.97;;;12.52;100.00
10806;BME280;5455;53.224;6.000;2023-05-14T05:44:14;102001.56;;;12.62;100.00
10806;BME280;5455;53.224;6.000;2023-05-14T05:46:41;102000.88;;;12.65;100.00
10806;BME280;5455;53.224;6.000;2023-05-14T05:49:08;102010.13;;;12.81;100.00
10806;BME280;5455;53.224;6.000;2023-05-14T05:51:35;102003.44;;;12.70;100.00
10806;BME280;5455;53.224;6.000;2023-05-14T05:54:02;102007.25;;;12.65;100.00
10806;BME280;5455;53.224;6.000;2023-05-14T05:56:29;102003.44;;;12.70;100.00
10806;BME280;5455;53.224;6.000;2023-05-14T05:58:56;102014.66;;;12.74;100.00
10806;BME280;5455;53.224;6.000;2023-05-14T06:01:23;102005.28;;;12.78;100.00
10806;BME280;5455;53.224;6.000;2023-05-14T06:03:50;102004.16;;;12.91;100.00
10806;BME280;5455;53.224;6.000;2023-05-14T06:06:17;102004.59;;;13.05;100.00
10806;BME280;5455;53.224;6.000;2023-05-14T06:08:43;102012.53;;;13.07;100.00
10806;BME280;5455;53.224;6.000;2023-05-14T06:11:11;102014.31;;;13.11;100.00
10806;BME280;5455;53.224;6.000;2023-05-14T06:13:38;102015.56;;;13.26;100.00
10806;BME280;5455;53.224;6.000;2023-05-14T06:16:05;102019.28;;;13.58;100.00
10806;BME280;5455;53.224;6.000;2023-05-14T06:18:32;102010.38;;;13.64;100.00
10806;BME280;5455;53.224;6.000;2023-05-14T06:20:59;102006.88;;;13.79;100.00
10806;BME280;5455;53.224;6.000;2023-05-14T06:23:26;102019.88;;;13.63;100.00
10806;BME280;5455;53.224;6.000;2023-05-14T06:25:53;102014.88;;;13.69;100.00
10806;BME280;5455;53.224;6.000;2023-05-14T06:28:20;102013.31;;;13.84;100.00
10806;BME280;5455;53.224;6.000;2023-05-14T06:30:48;102011.59;;;13.79;100.00
10806;BME280;5455;53.224;6.000;2023-05-14T06:33:16;102016.53;;;13.86;100.00
10806;BME280;5455;53.224;6.000;2023-05-14T06:35:46;102016.50;;;13.98;100.00
10806;BME280;5455;53.224;6.000;2023-05-14T06:38:13;102011.59;;;14.07;100.00
10806;BME280;5455;53.224;6.000;2023-05-14T06:40:39;102027.13;;;14.23;100.00
10806;BME280;5455;53.224;6.000;2023-05-14T06:43:06;102019.31;;;14.13;100.00
10806;BME280;5455;53.224;6.000;2023-05-14T06:45:33;102028.56;;;14.17;100.00
10806;BME280;5455;53.224;6.000;2023-05-14T06:48:01;102025.34;;;14.31;100.00
10806;BME280;5455;53.224;6.000;2023-05-14T06:50:28;102003.84;;;14.28;100.00
10806;BME280;5455;53.224;6.000;2023-05-14T06:52:55;102000.88;;;14.49;100.00
10806;BME280;5455;53.224;6.000;2023-05-14T06:55:22;102006.22;;;14.73;100.00
10806;BME280;5455;53.224;6.000;2023-05-14T06:57:49;101997.91;;;14.73;100.00
10806;BME280;5455;53.224;6.000;2023-05-14T07:00:16;102002.22;;;14.70;100.00
10806;BME280;5455;53.224;6.000;2023-05-14T07:02:43;102005.06;;;14.58;100.00
10806;BME280;5455;53.224;6.000;2023-05-14T07:05:10;102001.56;;;14.46;100.00
10806;BME280;5455;53.224;6.000;2023-05-14T07:07:47;101997.66;;;14.47;100.00
10806;BME280;5455;53.224;6.000;2023-05-14T07:10:14;101996.75;;;14.43;100.00
10806;BME280;5455;53.224;6.000;2023-05-14T07:12:41;102005.81;;;14.71;100.00
10806;BME280;5455;53.224;6.000;2023-05-14T07:15:08;102002.22;;;14.86;100.00
10806;BME280;5455;53.224;6.000;2023-05-14T07:17:35;102001.63;;;14.96;100.00
10806;BME280;5455;53.224;6.000;2023-05-14T07:20:03;102003.47;;;15.23;100.00
10806;BME280;5455;53.224;6.000;2023-05-14T07:22:31;102001.88;;;15.22;100.00
10806;BME280;5455;53.224;6.000;2023-05-14T07:24:58;102005.19;;;15.28;100.00
10806;BME280;5455;53.224;6.000;2023-05-14T07:27:25;102009.06;;;15.42;100.00
10806;BME280;5455;53.224;6.000;2023-05-14T07:29:52;102013.00;;;15.41;100.00
10806;BME280;5455;53.224;6.000;2023-05-14T07:32:18;102019.28;;;15.19;100.00
10806;BME280;5455;53.224;6.000;2023-05-14T07:34:46;102020.00;;;15.01;100.00
10806;BME280;5455;53.224;6.000;2023-05-14T07:37:12;102013.91;;;15.11;100.00
10806;BME280;5455;53.224;6.000;2023-05-14T07:39:39;102000.75;;;15.08;100.00
10806;BME280;5455;53.224;6.000;2023-05-14T07:42:07;102008.16;;;15.19;100.00
10806;BME280;5455;53.224;6.000;2023-05-14T07:44:35;102001.06;;;15.22;100.00
10806;BME280;5455;53.224;6.000;2023-05-14T07:47:02;102000.50;;;15.32;100.00
10806;BME280;5455;53.224;6.000;2023-05-14T07:49:29;102007.19;;;15.47;100.00
10806;BME280;5455;53.224;6.000;2023-05-14T07:51:56;102008.34;;;15.45;100.00
10806;BME280;5455;53.224;6.000;2023-05-14T07:54:24;102009.50;;;15.44;100.00
10806;BME280;5455;53.224;6.000;2023-05-14T07:56:52;102008.88;;;15.51;100.00
10806;BME280;5455;53.224;6.000;2023-05-14T07:59:18;102006.88;;;15.67;100.00
10806;BME280;5455;53.224;6.000;2023-05-14T08:01:45;102000.78;;;15.62;100.00
10806;BME280;5455;53.224;6.000;2023-05-14T08:04:13;101998.97;;;15.50;100.00
10806;BME280;5455;53.224;6.000;2023-05-14T08:06:42;101995.59;;;15.60;100.00
10806;BME280;5455;53.224;6.000;2023-05-14T08:09:08;101997.72;;;15.86;100.00
10806;BME280;5455;53.224;6.000;2023-05-14T08:11:35;101995.38;;;15.88;100.00
10806;BME280;5455;53.224;6.000;2023-05-14T08:14:02;101996.91;;;15.66;100.00
10806;BME280;5455;53.224;6.000;2023-05-14T08:16:29;101993.44;;;15.54;100.00
10806;BME280;5455;53.224;6.000;2023-05-14T08:18:56;101994.81;;;15.44;100.00
10806;BME280;5455;53.224;6.000;2023-05-14T08:21:23;101991.41;;;15.51;100.00
10806;BME280;5455;53.224;6.000;2023-05-14T08:23:50;101995.00;;;15.70;100.00
10806;BME280;5455;53.224;6.000;2023-05-14T08:26:17;101992.34;;;15.77;100.00
10806;BME280;5455;53.224;6.000;2023-05-14T08:28:44;101998.41;;;16.21;100.00
10806;BME280;5455;53.224;6.000;2023-05-14T08:31:11;101995.69;;;16.25;100.00
10806;BME280;5455;53.224;6.000;2023-05-14T08:33:41;101996.91;;;16.27;100.00
10806;BME280;5455;53.224;6.000;2023-05-14T08:36:08;101982.66;;;16.51;100.00
10806;BME280;5455;53.224;6.000;2023-05-14T08:38:35;101994.88;;;16.24;100.00
10806;BME280;5455;53.224;6.000;2023-05-14T08:41:04;101988.53;;;16.05;100.00
10806;BME280;5455;53.224;6.000;2023-05-14T08:43:42;101986.59;;;16.28;100.00
10806;BME280;5455;53.224;6.000;2023-05-14T08:46:13;101980.53;;;16.45;100.00
10806;BME280;5455;53.224;6.000;2023-05-14T08:48:41;101981.59;;;16.37;100.00
10806;BME280;5455;53.224;6.000;2023-05-14T08:51:08;101988.56;;;16.27;100.00
10806;BME280;5455;53.224;6.000;2023-05-14T08:53:37;101978.19;;;16.24;100.00
10806;BME280;5455;53.224;6.000;2023-05-14T08:56:06;101983.81;;;16.50;100.00
10806;BME280;5455;53.224;6.000;2023-05-14T08:58:33;101984.59;;;16.70;100.00
10806;BME280;5455;53.224;6.000;2023-05-14T09:01:00;101980.88;;;16.89;100.00
10806;BME280;5455;53.224;6.000;2023-05-14T09:03:31;101973.38;;;16.93;100.00
10806;BME280;5455;53.224;6.000;2023-05-14T09:05:59;101976.84;;;17.13;100.00
10806;BME280;5455;53.224;6.000;2023-05-14T09:08:26;101972.09;;;17.13;100.00
10806;BME280;5455;53.224;6.000;2023-05-14T09:10:53;101981.47;;;17.01;100.00
10806;BME280;5455;53.224;6.000;2023-05-14T09:13:21;101980.25;;;16.99;100.00
10806;BME280;5455;53.224;6.000;2023-05-14T09:15:48;101978.00;;;16.82;100.00
10806;BME280;5455;53.224;6.000;2023-05-14T09:18:17;101973.25;;;16.60;100.00
10806;BME280;5455;53.224;6.000;2023-05-14T09:20:45;101963.97;;;16.52;100.00
10806;BME280;5455;53.224;6.000;2023-05-14T09:23:12;101961.25;;;16.56;100.00
10806;BME280;5455;53.224;6.000;2023-05-14T09:25:39;101964.91;;;16.86;100.00
10806;BME280;5455;53.224;6.000;2023-05-14T09:28:08;101966.09;;;17.11;100.00
10806;BME280;5455;53.224;6.000;2023-05-14T09:30:35;101965.69;;;17.09;100.00
10806;BME280;5455;53.224;6.000;2023-05-14T09:33:02;101964.41;;;17.33;100.00
10806;BME280;5455;53.224;6.000;2023-05-14T09:35:30;101956.56;;;17.42;100.00
10806;BME280;5455;53.224;6.000;2023-05-14T09:37:58;101944.91;;;17.63;100.00
10806;BME280;5455;53.224;6.000;2023-05-14T09:40:25;101952.84;;;17.60;100.00
10806;BME280;5455;53.224;6.000;2023-05-14T09:42:53;101947.31;;;17.64;100.00
10806;BME280;5455;53.224;6.000;2023-05-14T09:45:20;101946.47;;;17.93;100.00
10806;BME280;5455;53.224;6.000;2023-05-14T09:47:47;101940.94;;;18.41;100.00
10806;BME280;5455;53.224;6.000;2023-05-14T09:50:14;101940.50;;;18.35;100.00
10806;BME280;5455;53.224;6.000;2023-05-14T09:52:41;101945.84;;;18.54;100.00
10806;BME280;5455;53.224;6.000;2023-05-14T09:55:08;101944.19;;;18.06;100.00
10806;BME280;5455;53.224;6.000;2023-05-14T09:57:36;101940.41;;;17.88;100.00
10806;BME280;5455;53.224;6.000;2023-05-14T10:00:03;101938.16;;;18.00;100.00
10806;BME280;5455;53.224;6.000;2023-05-14T10:02:37;101932.84;;;17.88;100.00
10806;BME280;5455;53.224;6.000;2023-05-14T10:05:06;101936.59;;;17.66;100.00
10806;BME280;5455;53.224;6.000;2023-05-14T10:07:43;101938.31;;;17.78;100.00
10806;BME280;5455;53.224;6.000;2023-05-14T10:10:15;101940.91;;;17.97;100.00
10806;BME280;5455;53.224;6.000;2023-05-14T10:12:47;101939.63;;;17.91;100.00
10806;BME280;5455;53.224;6.000;2023-05-14T10:15:24;101942.31;;;18.21;100.00
10806;BME280;5455;53.224;6.000;2023-05-14T10:17:55;101939.84;;;18.08;100.00
10806;BME280;5455;53.224;6.000;2023-05-14T10:20:25;101940.63;;;18.05;100.00
10806;BME280;5455;53.224;6.000;2023-05-14T10:22:53;101935.69;;;18.32;100.00
10806;BME280;5455;53.224;6.000;2023-05-14T10:25:20;101925.78;;;18.45;100.00
10806;BME280;5455;53.224;6.000;2023-05-14T10:27:48;101922.06;;;18.71;100.00
10806;BME280;5455;53.224;6.000;2023-05-14T10:30:15;101922.19;;;18.96;100.00
10806;BME280;5455;53.224;6.000;2023-05-14T10:32:46;101924.53;;;18.87;100.00
10806;BME280;5455;53.224;6.000;2023-05-14T10:35:20;101919.78;;;18.91;100.00
10806;BME280;5455;53.224;6.000;2023-05-14T10:37:51;101911.00;;;18.89;100.00
10806;BME280;5455;53.224;6.000;2023-05-14T10:40:17;101917.88;;;19.05;100.00
10806;BME280;5455;53.224;6.000;2023-05-14T10:42:45;101917.09;;;19.08;100.00
10806;BME280;5455;53.224;6.000;2023-05-14T10:45:13;101923.28;;;18.81;100.00
10806;BME280;5455;53.224;6.000;2023-05-14T10:47:43;101916.03;;;18.65;100.00
10806;BME280;5455;53.224;6.000;2023-05-14T10:50:13;101909.22;;;18.66;100.00
10806;BME280;5455;53.224;6.000;2023-05-14T10:52:41;101903.78;;;18.88;100.00
10806;BME280;5455;53.224;6.000;2023-05-14T10:55:13;101915.50;;;19.11;100.00
10806;BME280;5455;53.224;6.000;2023-05-14T10:57:43;101906.00;;;18.61;100.00
10806;BME280;5455;53.224;6.000;2023-05-14T11:00:12;101906.84;;;18.65;100.00
10806;BME280;5455;53.224;6.000;2023-05-14T11:02:43;101906.97;;;18.83;100.00
10806;BME280;5455;53.224;6.000;2023-05-14T11:05:15;101906.88;;;18.72;100.00
10806;BME280;5455;53.224;6.000;2023-05-14T11:07:48;101904.56;;;18.85;100.00
10806;BME280;5455;53.224;6.000;2023-05-14T11:10:17;101897.88;;;19.03;100.00
10806;BME280;5455;53.224;6.000;2023-05-14T11:12:46;101892.56;;;18.84;100.00
10806;BME280;5455;53.224;6.000;2023-05-14T11:15:21;101892.97;;;18.83;100.00
10806;BME280;5455;53.224;6.000;2023-05-14T11:17:50;101887.81;;;18.88;100.00
10806;BME280;5455;53.224;6.000;2023-05-14T11:20:19;101884.75;;;19.14;100.00
10806;BME280;5455;53.224;6.000;2023-05-14T11:22:47;101887.72;;;19.46;100.00
10806;BME280;5455;53.224;6.000;2023-05-14T11:25:15;101882.16;;;19.57;100.00
10806;BME280;5455;53.224;6.000;2023-05-14T11:27:44;101892.53;;;19.49;100.00
10806;BME280;5455;53.224;6.000;2023-05-14T11:30:16;101885.25;;;19.34;100.00
10806;BME280;5455;53.224;6.000;2023-05-14T11:32:46;101888.94;;;19.52;100.00
10806;BME280;5455;53.224;6.000;2023-05-14T11:35:15;101882.94;;;19.43;100.00
10806;BME280;5455;53.224;6.000;2023-05-14T11:37:46;101874.59;;;19.71;100.00
10806;BME280;5455;53.224;6.000;2023-05-14T11:40:15;101878.66;;;20.13;100.00
10806;BME280;5455;53.224;6.000;2023-05-14T11:42:42;101874.28;;;20.44;99.82
10806;BME280;5455;53.224;6.000;2023-05-14T11:45:10;101875.84;;;20.06;99.26
10806;BME280;5455;53.224;6.000;2023-05-14T11:47:39;101877.06;;;20.12;97.26
10806;BME280;5455;53.224;6.000;2023-05-14T11:50:07;101873.44;;;19.94;96.70
10806;BME280;5455;53.224;6.000;2023-05-14T11:52:39;101871.81;;;19.75;100.00
10806;BME280;5455;53.224;6.000;2023-05-14T11:55:11;101872.25;;;20.02;99.78
10806;BME280;5455;53.224;6.000;2023-05-14T11:57:39;101861.88;;;20.52;99.54
10806;BME280;5455;53.224;6.000;2023-05-14T12:00:10;101866.22;;;20.84;96.26
10806;BME280;5455;53.224;6.000;2023-05-14T12:02:47;101865.03;;;20.68;91.32
10806;BME280;5455;53.224;6.000;2023-05-14T12:05:16;101859.88;;;20.42;89.98
10806;BME280;5455;53.224;6.000;2023-05-14T12:07:46;101847.44;;;20.60;88.52
10806;BME280;5455;53.224;6.000;2023-05-14T12:10:13;101851.06;;;20.61;91.65
10806;BME280;5455;53.224;6.000;2023-05-14T12:12:44;101851.44;;;20.66;90.60
10806;BME280;5455;53.224;6.000;2023-05-14T12:15:12;101854.25;;;20.66;89.58
10806;BME280;5455;53.224;6.000;2023-05-14T12:17:40;101848.16;;;20.82;90.59
10806;BME280;5455;53.224;6.000;2023-05-14T12:20:08;101844.16;;;20.94;85.52
10806;BME280;5455;53.224;6.000;2023-05-14T12:22:36;101846.66;;;20.49;84.98
10806;BME280;5455;53.224;6.000;2023-05-14T12:25:09;101837.84;;;20.44;87.64
10806;BME280;5455;53.224;6.000;2023-05-14T12:27:38;101838.66;;;20.51;90.67
10806;BME280;5455;53.224;6.000;2023-05-14T12:30:05;101824.53;;;20.86;89.43
10806;BME280;5455;53.224;6.000;2023-05-14T12:32:47;101829.69;;;21.02;86.23
10806;BME280;5455;53.224;6.000;2023-05-14T12:35:17;101833.81;;;20.69;86.18
10806;BME280;5455;53.224;6.000;2023-05-14T12:37:45;101827.41;;;20.69;88.75
10806;BME280;5455;53.224;6.000;2023-05-14T12:40:12;101827.28;;;21.11;88.25
10806;BME280;5455;53.224;6.000;2023-05-14T12:42:39;101829.47;;;21.48;81.76
10806;BME280;5455;53.224;6.000;2023-05-14T12:45:06;101820.59;;;21.60;82.83
10806;BME280;5455;53.224;6.000;2023-05-14T12:47:34;101818.84;;;21.84;78.66
10806;BME280;5455;53.224;6.000;2023-05-14T12:50:03;101820.19;;;22.17;75.63
10806;BME280;5455;53.224;6.000;2023-05-14T12:52:30;101816.78;;;21.91;75.82
10806;BME280;5455;53.224;6.000;2023-05-14T12:55:00;101811.38;;;22.11;75.43
10806;BME280;5455;53.224;6.000;2023-05-14T12:57:27;101813.03;;;22.09;76.35
10806;BME280;5455;53.224;6.000;2023-05-14T12:59:56;101819.00;;;22.55;72.13
10806;BME280;5455;53.224;6.000;2023-05-14T13:02:23;101814.19;;;22.11;70.38
10806;BME280;5455;53.224;6.000;2023-05-14T13:04:50;101813.81;;;22.13;73.88
10806;BME280;5455;53.224;6.000;2023-05-14T13:07:17;101807.94;;;22.41;71.57